sensor_id;sensor_type;location;lat;lon;timestamp;P1;durP1;ratioP1;P2;durP2;ratioP2
12425;SDS011;6277;49.824;9.562;2023-04-06T00:01:09;5.32;;;3.40;;
12425;SDS011;6277;49.824;9.562;2023-04-06T00:03:36;4.32;;;3.25;;
12425;SDS011;6277;49.824;9.562;2023-04-06T00:06:02;5.28;;;3.42;;
12425;SDS011;6277;49.824;9.562;2023-04-06T00:08:28;7.10;;;3.28;;
12425;SDS011;6277;49.824;9.562;2023-04-06T00:10:54;6.10;;;2.97;;
12425;SDS011;6277;49.824;9.562;2023-04-06T00:13:19;5.13;;;3.30;;
12425;SDS011;6277;49.824;9.562;2023-04-06T00:15:45;6.28;;;3.25;;
12425;SDS011;6277;49.824;9.562;2023-04-06T00:18:11;4.63;;;2.92;;
12425;SDS011;6277;49.824;9.562;2023-04-06T00:20:36;3.85;;;3.00;;
12425;SDS011;6277;49.824;9.562;2023-04-06T00:23:02;4.07;;;2.83;;
12425;SDS011;6277;49.824;9.562;2023-04-06T00:25:27;4.03;;;2.83;;
12425;SDS011;6277;49.824;9.562;2023-04-06T00:27:53;5.80;;;3.20;;
12425;SDS011;6277;49.824;9.562;2023-04-06T00:30:19;5.22;;;3.10;;
12425;SDS011;6277;49.824;9.562;2023-04-06T00:32:44;5.22;;;3.00;;
12425;SDS011;6277;49.824;9.562;2023-04-06T00:35:10;4.50;;;3.05;;
12425;SDS011;6277;49.824;9.562;2023-04-06T00:37:36;4.57;;;2.70;;
12425;SDS011;6277;49.824;9.562;2023-04-06T00:40:01;4.43;;;2.85;;
12425;SDS011;6277;49.824;9.562;2023-04-06T00:42:27;3.25;;;2.60;;
12425;SDS011;6277;49.824;9.562;2023-04-06T00:44:53;4.15;;;2.83;;
12425;SDS011;6277;49.824;9.562;2023-04-06T00:47:23;4.43;;;2.80;;
12425;SDS011;6277;49.824;9.562;2023-04-06T00:49:52;4.82;;;3.05;;
12425;SDS011;6277;49.824;9.562;2023-04-06T00:52:19;4.30;;;2.70;;
12425;SDS011;6277;49.824;9.562;2023-04-06T00:54:45;3.97;;;3.03;;
12425;SDS011;6277;49.824;9.562;2023-04-06T00:57:11;4.70;;;2.95;;
12425;SDS011;6277;49.824;9.562;2023-04-06T00:59:38;3.75;;;2.85;;
12425;SDS011;6277;49.824;9.562;2023-04-06T01:02:04;3.95;;;3.05;;
12425;SDS011;6277;49.824;9.562;2023-04-06T01:04:30;3.67;;;2.75;;
12425;SDS011;6277;49.824;9.562;2023-04-06T01:06:56;4.80;;;2.88;;
12425;SDS011;6277;49.824;9.562;2023-04-06T01:09:21;4.53;;;3.05;;
12425;SDS011;6277;49.824;9.562;2023-04-06T01:11:47;4.82;;;2.83;;
12425;SDS011;6277;49.824;9.562;2023-04-06T01:14:14;5.28;;;2.85;;
12425;SDS011;6277;49.824;9.562;2023-04-06T01:16:40;4.25;;;2.92;;
12425;SDS011;6277;49.824;9.562;2023-04-06T01:19:09;3.97;;;2.88;;
12425;SDS011;6277;49.824;9.562;2023-04-06T01:21:36;3.72;;;2.45;;
12425;SDS011;6277;49.824;9.562;2023-04-06T01:24:02;3.22;;;2.58;;
12425;SDS011;6277;49.824;9.562;2023-04-06T01:26:28;5.22;;;2.78;;
12425;SDS011;6277;49.824;9.562;2023-04-06T01:28:54;3.03;;;2.50;;
12425;SDS011;6277;49.824;9.562;2023-04-06T01:31:20;3.90;;;2.50;;
12425;SDS011;6277;49.824;9.562;2023-04-06T01:33:46;3.47;;;2.67;;
12425;SDS011;6277;49.824;9.562;2023-04-06T01:36:11;3.58;;;2.53;;
12425;SDS011;6277;49.824;9.562;2023-04-06T01:38:37;3.20;;;2.20;;
12425;SDS011;6277;49.824;9.562;2023-04-06T01:41:03;2.80;;;1.90;;
12425;SDS011;6277;49.824;9.562;2023-04-06T01:43:28;2.78;;;2.13;;
12425;SDS011;6277;49.824;9.562;2023-04-06T01:45:54;3.25;;;2.22;;
12425;SDS011;6277;49.824;9.562;2023-04-06T01:48:20;3.22;;;2.30;;
12425;SDS011;6277;49.824;9.562;2023-04-06T01:50:45;2.85;;;2.10;;
12425;SDS011;6277;49.824;9.562;2023-04-06T01:53:11;4.47;;;2.40;;
12425;SDS011;6277;49.824;9.562;2023-04-06T01:55:36;3.10;;;2.53;;
12425;SDS011;6277;49.824;9.562;2023-04-06T01:58:02;3.53;;;2.60;;
12425;SDS011;6277;49.824;9.562;2023-04-06T02:00:28;4.70;;;2.50;;
12425;SDS011;6277;49.824;9.562;2023-04-06T02:02:53;3.08;;;2.28;;
12425;SDS011;6277;49.824;9.562;2023-04-06T02:05:19;5.18;;;2.70;;
12425;SDS011;6277;49.824;9.562;2023-04-06T02:07:45;3.50;;;2.72;;
12425;SDS011;6277;49.824;9.562;2023-04-06T02:10:11;5.78;;;2.70;;
12425;SDS011;6277;49.824;9.562;2023-04-06T02:12:38;4.57;;;2.90;;
12425;SDS011;6277;49.824;9.562;2023-04-06T02:15:03;4.20;;;2.90;;
12425;SDS011;6277;49.824;9.562;2023-04-06T02:17:29;3.80;;;2.88;;
12425;SDS011;6277;49.824;9.562;2023-04-06T02:19:55;3.88;;;2.78;;
12425;SDS011;6277;49.824;9.562;2023-04-06T02:22:20;4.55;;;3.00;;
12425;SDS011;6277;49.824;9.562;2023-04-06T02:24:46;4.25;;;2.85;;
12425;SDS011;6277;49.824;9.562;2023-04-06T02:27:11;4.40;;;3.08;;
12425;SDS011;6277;49.824;9.562;2023-04-06T02:29:38;4.32;;;2.90;;
12425;SDS011;6277;49.824;9.562;2023-04-06T02:32:04;5.57;;;3.10;;
12425;SDS011;6277;49.824;9.562;2023-04-06T02:34:30;4.00;;;3.08;;
12425;SDS011;6277;49.824;9.562;2023-04-06T02:36:55;4.13;;;2.88;;
12425;SDS011;6277;49.824;9.562;2023-04-06T02:39:21;3.65;;;2.85;;
12425;SDS011;6277;49.824;9.562;2023-04-06T02:41:46;4.25;;;3.00;;
12425;SDS011;6277;49.824;9.562;2023-04-06T02:44:12;4.95;;;3.28;;
12425;SDS011;6277;49.824;9.562;2023-04-06T02:46:37;5.18;;;3.47;;
12425;SDS011;6277;49.824;9.562;2023-04-06T02:49:03;3.85;;;2.63;;
12425;SDS011;6277;49.824;9.562;2023-04-06T02:51:28;4.22;;;3.17;;
12425;SDS011;6277;49.824;9.562;2023-04-06T02:53:54;6.03;;;3.33;;
12425;SDS011;6277;49.824;9.562;2023-04-06T02:56:19;4.93;;;3.00;;
12425;SDS011;6277;49.824;9.562;2023-04-06T02:58:46;5.07;;;3.40;;
12425;SDS011;6277;49.824;9.562;2023-04-06T03:01:12;4.30;;;3.20;;
12425;SDS011;6277;49.824;9.562;2023-04-06T03:03:37;5.10;;;3.35;;
12425;SDS011;6277;49.824;9.562;2023-04-06T03:06:03;5.53;;;3.67;;
12425;SDS011;6277;49.824;9.562;2023-04-06T03:08:29;4.57;;;3.58;;
12425;SDS011;6277;49.824;9.562;2023-04-06T03:10:55;4.78;;;3.17;;
12425;SDS011;6277;49.824;9.562;2023-04-06T03:13:20;4.75;;;3.42;;
12425;SDS011;6277;49.824;9.562;2023-04-06T03:15:46;4.53;;;3.00;;
12425;SDS011;6277;49.824;9.562;2023-04-06T03:18:12;4.68;;;3.17;;
12425;SDS011;6277;49.824;9.562;2023-04-06T03:20:37;4.32;;;2.60;;
12425;SDS011;6277;49.824;9.562;2023-04-06T03:23:03;3.80;;;2.30;;
12425;SDS011;6277;49.824;9.562;2023-04-06T03:25:28;4.28;;;2.92;;
12425;SDS011;6277;49.824;9.562;2023-04-06T03:27:55;3.67;;;2.55;;
12425;SDS011;6277;49.824;9.562;2023-04-06T03:30:20;4.25;;;2.70;;
12425;SDS011;6277;49.824;9.562;2023-04-06T03:32:46;3.53;;;2.30;;
12425;SDS011;6277;49.824;9.562;2023-04-06T03:35:12;4.47;;;2.72;;
12425;SDS011;6277;49.824;9.562;2023-04-06T03:37:38;6.10;;;3.05;;
12425;SDS011;6277;49.824;9.562;2023-04-06T03:40:04;4.40;;;2.95;;
12425;SDS011;6277;49.824;9.562;2023-04-06T03:42:30;4.28;;;2.60;;
12425;SDS011;6277;49.824;9.562;2023-04-06T03:44:55;4.60;;;3.13;;
12425;SDS011;6277;49.824;9.562;2023-04-06T03:47:21;4.93;;;2.92;;
12425;SDS011;6277;49.824;9.562;2023-04-06T03:49:47;4.85;;;3.00;;
12425;SDS011;6277;49.824;9.562;2023-04-06T03:52:12;3.80;;;2.63;;
12425;SDS011;6277;49.824;9.562;2023-04-06T03:54:38;4.82;;;2.90;;
12425;SDS011;6277;49.824;9.562;2023-04-06T03:57:04;4.00;;;2.78;;
12425;SDS011;6277;49.824;9.562;2023-04-06T03:59:29;4.15;;;3.08;;
12425;SDS011;6277;49.824;9.562;2023-04-06T04:01:55;4.25;;;3.03;;
12425;SDS011;6277;49.824;9.562;2023-04-06T04:04:20;6.22;;;2.97;;
12425;SDS011;6277;49.824;9.562;2023-04-06T04:06:46;5.28;;;3.10;;
12425;SDS011;6277;49.824;9.562;2023-04-06T04:09:11;4.80;;;2.97;;
12425;SDS011;6277;49.824;9.562;2023-04-06T04:11:37;4.55;;;2.92;;
12425;SDS011;6277;49.824;9.562;2023-04-06T04:14:03;4.70;;;2.70;;
12425;SDS011;6277;49.824;9.562;2023-04-06T04:16:28;6.43;;;3.05;;
12425;SDS011;6277;49.824;9.562;2023-04-06T04:18:54;8.35;;;3.72;;
12425;SDS011;6277;49.824;9.562;2023-04-06T04:21:19;5.60;;;3.30;;
12425;SDS011;6277;49.824;9.562;2023-04-06T04:23:45;4.18;;;3.13;;
12425;SDS011;6277;49.824;9.562;2023-04-06T04:26:11;4.30;;;2.90;;
12425;SDS011;6277;49.824;9.562;2023-04-06T04:28:36;3.65;;;2.72;;
12425;SDS011;6277;49.824;9.562;2023-04-06T04:31:02;4.25;;;2.83;;
12425;SDS011;6277;49.824;9.562;2023-04-06T04:33:27;5.72;;;3.08;;
12425;SDS011;6277;49.824;9.562;2023-04-06T04:35:53;3.88;;;2.42;;
12425;SDS011;6277;49.824;9.562;2023-04-06T04:38:18;3.80;;;2.97;;
12425;SDS011;6277;49.824;9.562;2023-04-06T04:40:44;3.53;;;2.58;;
12425;SDS011;6277;49.824;9.562;2023-04-06T04:43:10;5.70;;;2.70;;
12425;SDS011;6277;49.824;9.562;2023-04-06T04:45:35;3.95;;;2.78;;
12425;SDS011;6277;49.824;9.562;2023-04-06T04:48:01;3.85;;;2.83;;
12425;SDS011;6277;49.824;9.562;2023-04-06T04:50:26;5.00;;;3.45;;
12425;SDS011;6277;49.824;9.562;2023-04-06T04:52:52;5.70;;;3.10;;
12425;SDS011;6277;49.824;9.562;2023-04-06T04:55:17;5.60;;;3.42;;
12425;SDS011;6277;49.824;9.562;2023-04-06T04:57:43;4.47;;;3.13;;
12425;SDS011;6277;49.824;9.562;2023-04-06T05:00:09;6.18;;;2.85;;
12425;SDS011;6277;49.824;9.562;2023-04-06T05:02:35;4.85;;;2.78;;
12425;SDS011;6277;49.824;9.562;2023-04-06T05:05:00;4.18;;;2.85;;
12425;SDS011;6277;49.824;9.562;2023-04-06T05:07:26;3.45;;;2.72;;
12425;SDS011;6277;49.824;9.562;2023-04-06T05:09:51;3.38;;;2.40;;
12425;SDS011;6277;49.824;9.562;2023-04-06T05:12:18;2.70;;;2.40;;
12425;SDS011;6277;49.824;9.562;2023-04-06T05:14:44;3.78;;;2.70;;
12425;SDS011;6277;49.824;9.562;2023-04-06T05:17:10;2.85;;;2.35;;
12425;SDS011;6277;49.824;9.562;2023-04-06T05:19:35;2.72;;;2.40;;
12425;SDS011;6277;49.824;9.562;2023-04-06T05:22:01;3.55;;;2.50;;
12425;SDS011;6277;49.824;9.562;2023-04-06T05:24:27;3.13;;;2.60;;
12425;SDS011;6277;49.824;9.562;2023-04-06T05:26:52;4.28;;;2.80;;
12425;SDS011;6277;49.824;9.562;2023-04-06T05:29:18;4.10;;;2.50;;
12425;SDS011;6277;49.824;9.562;2023-04-06T05:31:45;4.55;;;2.95;;
12425;SDS011;6277;49.824;9.562;2023-04-06T05:34:10;11.98;;;7.05;;
12425;SDS011;6277;49.824;9.562;2023-04-06T05:36:37;12.38;;;6.45;;
12425;SDS011;6277;49.824;9.562;2023-04-06T05:39:03;12.93;;;6.55;;
12425;SDS011;6277;49.824;9.562;2023-04-06T05:41:28;9.25;;;5.38;;
12425;SDS011;6277;49.824;9.562;2023-04-06T05:43:54;7.43;;;4.50;;
12425;SDS011;6277;49.824;9.562;2023-04-06T05:46:20;5.63;;;3.83;;
12425;SDS011;6277;49.824;9.562;2023-04-06T05:48:45;5.18;;;3.50;;
12425;SDS011;6277;49.824;9.562;2023-04-06T05:51:11;5.80;;;3.83;;
12425;SDS011;6277;49.824;9.562;2023-04-06T05:53:37;4.82;;;3.20;;
12425;SDS011;6277;49.824;9.562;2023-04-06T05:56:02;4.88;;;3.35;;
12425;SDS011;6277;49.824;9.562;2023-04-06T05:58:28;4.57;;;3.08;;
12425;SDS011;6277;49.824;9.562;2023-04-06T06:00:57;4.85;;;2.90;;
12425;SDS011;6277;49.824;9.562;2023-04-06T06:03:24;5.97;;;3.17;;
12425;SDS011;6277;49.824;9.562;2023-04-06T06:05:50;4.53;;;2.92;;
12425;SDS011;6277;49.824;9.562;2023-04-06T06:08:15;4.32;;;2.70;;
12425;SDS011;6277;49.824;9.562;2023-04-06T06:10:41;4.40;;;2.40;;
12425;SDS011;6277;49.824;9.562;2023-04-06T06:13:06;4.80;;;2.85;;
12425;SDS011;6277;49.824;9.562;2023-04-06T06:15:32;4.13;;;2.70;;
12425;SDS011;6277;49.824;9.562;2023-04-06T06:17:58;4.53;;;3.03;;
12425;SDS011;6277;49.824;9.562;2023-04-06T06:20:23;4.45;;;2.80;;
12425;SDS011;6277;49.824;9.562;2023-04-06T06:22:49;4.85;;;3.10;;
12425;SDS011;6277;49.824;9.562;2023-04-06T06:25:15;3.90;;;2.60;;
12425;SDS011;6277;49.824;9.562;2023-04-06T06:27:41;3.80;;;2.72;;
12425;SDS011;6277;49.824;9.562;2023-04-06T06:30:07;3.85;;;2.88;;
12425;SDS011;6277;49.824;9.562;2023-04-06T06:32:33;4.07;;;3.00;;
12425;SDS011;6277;49.824;9.562;2023-04-06T06:34:59;4.60;;;3.22;;
12425;SDS011;6277;49.824;9.562;2023-04-06T06:37:24;4.57;;;2.95;;
12425;SDS011;6277;49.824;9.562;2023-04-06T06:39:50;4.22;;;2.70;;
12425;SDS011;6277;49.824;9.562;2023-04-06T06:42:15;4.22;;;3.40;;
12425;SDS011;6277;49.824;9.562;2023-04-06T06:44:41;5.10;;;3.22;;
12425;SDS011;6277;49.824;9.562;2023-04-06T06:47:06;4.18;;;3.13;;
12425;SDS011;6277;49.824;9.562;2023-04-06T06:49:32;5.13;;;3.25;;
12425;SDS011;6277;49.824;9.562;2023-04-06T06:51:57;6.85;;;3.58;;
12425;SDS011;6277;49.824;9.562;2023-04-06T06:54:23;4.13;;;3.15;;
12425;SDS011;6277;49.824;9.562;2023-04-06T06:56:48;7.75;;;4.40;;
12425;SDS011;6277;49.824;9.562;2023-04-06T06:59:14;8.75;;;4.57;;
12425;SDS011;6277;49.824;9.562;2023-04-06T07:01:41;6.78;;;3.83;;
12425;SDS011;6277;49.824;9.562;2023-04-06T07:04:06;6.78;;;3.90;;
12425;SDS011;6277;49.824;9.562;2023-04-06T07:06:34;5.97;;;3.78;;
12425;SDS011;6277;49.824;9.562;2023-04-06T07:09:00;4.82;;;3.63;;
12425;SDS011;6277;49.824;9.562;2023-04-06T07:11:27;5.47;;;3.47;;
12425;SDS011;6277;49.824;9.562;2023-04-06T07:13:53;4.93;;;3.47;;
12425;SDS011;6277;49.824;9.562;2023-04-06T07:16:19;5.78;;;3.85;;
12425;SDS011;6277;49.824;9.562;2023-04-06T07:18:45;6.20;;;3.92;;
12425;SDS011;6277;49.824;9.562;2023-04-06T07:21:10;5.55;;;3.97;;
12425;SDS011;6277;49.824;9.562;2023-04-06T07:23:36;5.65;;;4.25;;
12425;SDS011;6277;49.824;9.562;2023-04-06T07:26:02;5.97;;;4.20;;
12425;SDS011;6277;49.824;9.562;2023-04-06T07:28:28;6.25;;;4.35;;
12425;SDS011;6277;49.824;9.562;2023-04-06T07:30:53;7.15;;;4.53;;
12425;SDS011;6277;49.824;9.562;2023-04-06T07:33:19;6.88;;;4.80;;
12425;SDS011;6277;49.824;9.562;2023-04-06T07:35:45;6.15;;;4.50;;
12425;SDS011;6277;49.824;9.562;2023-04-06T07:38:10;5.88;;;4.43;;
12425;SDS011;6277;49.824;9.562;2023-04-06T07:40:36;6.40;;;4.65;;
12425;SDS011;6277;49.824;9.562;2023-04-06T07:43:02;6.63;;;4.65;;
12425;SDS011;6277;49.824;9.562;2023-04-06T07:45:27;7.03;;;4.82;;
12425;SDS011;6277;49.824;9.562;2023-04-06T07:47:53;6.43;;;4.65;;
12425;SDS011;6277;49.824;9.562;2023-04-06T07:50:19;5.85;;;4.25;;
12425;SDS011;6277;49.824;9.562;2023-04-06T07:52:45;7.38;;;4.40;;
12425;SDS011;6277;49.824;9.562;2023-04-06T07:55:10;6.38;;;4.68;;
12425;SDS011;6277;49.824;9.562;2023-04-06T07:57:36;7.78;;;4.57;;
12425;SDS011;6277;49.824;9.562;2023-04-06T08:00:01;8.77;;;4.50;;
12425;SDS011;6277;49.824;9.562;2023-04-06T08:02:28;6.93;;;4.32;;
12425;SDS011;6277;49.824;9.562;2023-04-06T08:04:54;6.60;;;4.85;;
12425;SDS011;6277;49.824;9.562;2023-04-06T08:07:20;5.38;;;4.70;;
12425;SDS011;6277;49.824;9.562;2023-04-06T08:09:45;6.22;;;4.55;;
12425;SDS011;6277;49.824;9.562;2023-04-06T08:12:11;6.07;;;4.40;;
12425;SDS011;6277;49.824;9.562;2023-04-06T08:14:37;8.65;;;5.80;;
12425;SDS011;6277;49.824;9.562;2023-04-06T08:17:02;6.90;;;4.55;;
12425;SDS011;6277;49.824;9.562;2023-04-06T08:19:28;7.63;;;5.20;;
12425;SDS011;6277;49.824;9.562;2023-04-06T08:21:53;7.35;;;5.18;;
12425;SDS011;6277;49.824;9.562;2023-04-06T08:24:19;8.23;;;5.38;;
12425;SDS011;6277;49.824;9.562;2023-04-06T08:26:45;7.60;;;5.47;;
12425;SDS011;6277;49.824;9.562;2023-04-06T08:29:10;8.43;;;5.55;;
12425;SDS011;6277;49.824;9.562;2023-04-06T08:31:36;7.88;;;5.22;;
12425;SDS011;6277;49.824;9.562;2023-04-06T08:34:03;7.55;;;5.45;;
12425;SDS011;6277;49.824;9.562;2023-04-06T08:36:29;8.07;;;5.57;;
12425;SDS011;6277;49.824;9.562;2023-04-06T08:38:55;8.13;;;5.13;;
12425;SDS011;6277;49.824;9.562;2023-04-06T08:41:21;8.85;;;5.60;;
12425;SDS011;6277;49.824;9.562;2023-04-06T08:43:48;6.07;;;4.88;;
12425;SDS011;6277;49.824;9.562;2023-04-06T08:46:15;7.60;;;5.45;;
12425;SDS011;6277;49.824;9.562;2023-04-06T08:48:41;6.65;;;5.30;;
12425;SDS011;6277;49.824;9.562;2023-04-06T08:51:11;9.05;;;5.82;;
12425;SDS011;6277;49.824;9.562;2023-04-06T08:53:37;9.55;;;5.43;;
12425;SDS011;6277;49.824;9.562;2023-04-06T08:56:03;7.75;;;5.80;;
12425;SDS011;6277;49.824;9.562;2023-04-06T08:58:34;9.18;;;6.32;;
12425;SDS011;6277;49.824;9.562;2023-04-06T09:01:02;7.90;;;6.07;;
12425;SDS011;6277;49.824;9.562;2023-04-06T09:03:32;7.07;;;5.72;;
12425;SDS011;6277;49.824;9.562;2023-04-06T09:06:02;9.55;;;6.03;;
12425;SDS011;6277;49.824;9.562;2023-04-06T09:08:29;7.78;;;5.88;;
12425;SDS011;6277;49.824;9.562;2023-04-06T09:10:54;7.72;;;5.95;;
12425;SDS011;6277;49.824;9.562;2023-04-06T09:13:20;7.40;;;5.55;;
12425;SDS011;6277;49.824;9.562;2023-04-06T09:15:46;7.90;;;5.82;;
12425;SDS011;6277;49.824;9.562;2023-04-06T09:18:11;5.97;;;5.00;;
12425;SDS011;6277;49.824;9.562;2023-04-06T09:20:37;11.98;;;6.38;;
12425;SDS011;6277;49.824;9.562;2023-04-06T09:23:02;7.82;;;5.68;;
12425;SDS011;6277;49.824;9.562;2023-04-06T09:25:28;7.45;;;5.63;;
12425;SDS011;6277;49.824;9.562;2023-04-06T09:28:02;5.72;;;4.93;;
12425;SDS011;6277;49.824;9.562;2023-04-06T09:30:29;7.80;;;5.50;;
12425;SDS011;6277;49.824;9.562;2023-04-06T09:32:56;7.20;;;6.15;;
12425;SDS011;6277;49.824;9.562;2023-04-06T09:35:23;8.40;;;5.18;;
12425;SDS011;6277;49.824;9.562;2023-04-06T09:37:51;7.20;;;5.28;;
12425;SDS011;6277;49.824;9.562;2023-04-06T09:40:17;7.70;;;5.85;;
12425;SDS011;6277;49.824;9.562;2023-04-06T09:42:47;9.23;;;5.93;;
12425;SDS011;6277;49.824;9.562;2023-04-06T09:45:14;8.40;;;5.70;;
12425;SDS011;6277;49.824;9.562;2023-04-06T09:47:44;8.02;;;5.72;;
12425;SDS011;6277;49.824;9.562;2023-04-06T09:50:11;8.13;;;6.18;;
12425;SDS011;6277;49.824;9.562;2023-04-06T09:55:17;6.38;;;5.43;;
12425;SDS011;6277;49.824;9.562;2023-04-06T09:58:36;6.90;;;5.45;;
12425;SDS011;6277;49.824;9.562;2023-04-06T10:01:17;7.65;;;6.20;;
12425;SDS011;6277;49.824;9.562;2023-04-06T10:03:44;7.60;;;5.20;;
12425;SDS011;6277;49.824;9.562;2023-04-06T10:06:24;7.00;;;5.38;;
12425;SDS011;6277;49.824;9.562;2023-04-06T10:08:53;7.78;;;5.32;;
12425;SDS011;6277;49.824;9.562;2023-04-06T10:11:21;6.43;;;5.18;;
12425;SDS011;6277;49.824;9.562;2023-04-06T10:13:47;7.18;;;5.47;;
12425;SDS011;6277;49.824;9.562;2023-04-06T10:16:15;7.07;;;5.45;;
12425;SDS011;6277;49.824;9.562;2023-04-06T10:18:41;9.32;;;4.97;;
12425;SDS011;6277;49.824;9.562;2023-04-06T10:21:19;6.53;;;4.90;;
12425;SDS011;6277;49.824;9.562;2023-04-06T10:23:49;5.68;;;4.45;;
12425;SDS011;6277;49.824;9.562;2023-04-06T10:26:20;7.00;;;5.25;;
12425;SDS011;6277;49.824;9.562;2023-04-06T10:28:47;8.73;;;5.20;;
12425;SDS011;6277;49.824;9.562;2023-04-06T10:31:14;7.05;;;5.13;;
12425;SDS011;6277;49.824;9.562;2023-04-06T10:33:40;6.45;;;4.68;;
12425;SDS011;6277;49.824;9.562;2023-04-06T10:36:12;5.63;;;4.68;;
12425;SDS011;6277;49.824;9.562;2023-04-06T10:38:40;6.45;;;4.80;;
12425;SDS011;6277;49.824;9.562;2023-04-06T10:41:06;7.28;;;5.20;;
12425;SDS011;6277;49.824;9.562;2023-04-06T10:43:37;6.38;;;4.93;;
12425;SDS011;6277;49.824;9.562;2023-04-06T10:46:04;5.93;;;4.65;;
12425;SDS011;6277;49.824;9.562;2023-04-06T10:48:41;7.72;;;5.38;;
12425;SDS011;6277;49.824;9.562;2023-04-06T10:51:08;5.82;;;4.60;;
12425;SDS011;6277;49.824;9.562;2023-04-06T10:53:36;7.65;;;5.25;;
12425;SDS011;6277;49.824;9.562;2023-04-06T10:56:01;7.07;;;5.03;;
12425;SDS011;6277;49.824;9.562;2023-04-06T10:58:28;6.93;;;5.43;;
12425;SDS011;6277;49.824;9.562;2023-04-06T11:00:55;7.25;;;5.35;;
12425;SDS011;6277;49.824;9.562;2023-04-06T11:03:21;6.47;;;4.72;;
12425;SDS011;6277;49.824;9.562;2023-04-06T11:05:47;6.65;;;4.55;;
12425;SDS011;6277;49.824;9.562;2023-04-06T11:11:05;6.40;;;4.95;;
12425;SDS011;6277;49.824;9.562;2023-04-06T11:13:36;7.55;;;5.60;;
12425;SDS011;6277;49.824;9.562;2023-04-06T11:16:03;6.55;;;4.95;;
12425;SDS011;6277;49.824;9.562;2023-04-06T11:18:29;8.35;;;5.72;;
12425;SDS011;6277;49.824;9.562;2023-04-06T11:20:56;5.60;;;3.90;;
12425;SDS011;6277;49.824;9.562;2023-04-06T11:23:22;5.60;;;4.55;;
12425;SDS011;6277;49.824;9.562;2023-04-06T11:25:51;6.00;;;4.60;;
12425;SDS011;6277;49.824;9.562;2023-04-06T11:28:17;6.35;;;4.72;;
12425;SDS011;6277;49.824;9.562;2023-04-06T11:30:43;6.28;;;4.80;;
12425;SDS011;6277;49.824;9.562;2023-04-06T11:33:10;6.82;;;5.18;;
12425;SDS011;6277;49.824;9.562;2023-04-06T11:35:35;8.75;;;4.88;;
12425;SDS011;6277;49.824;9.562;2023-04-06T11:38:02;5.68;;;4.57;;
12425;SDS011;6277;49.824;9.562;2023-04-06T11:40:28;5.70;;;4.85;;
12425;SDS011;6277;49.824;9.562;2023-04-06T11:42:55;6.07;;;5.10;;
12425;SDS011;6277;49.824;9.562;2023-04-06T11:45:21;5.90;;;4.90;;
12425;SDS011;6277;49.824;9.562;2023-04-06T11:47:55;6.00;;;4.63;;
12425;SDS011;6277;49.824;9.562;2023-04-06T11:50:22;5.43;;;4.43;;
12425;SDS011;6277;49.824;9.562;2023-04-06T11:52:47;5.75;;;4.60;;
12425;SDS011;6277;49.824;9.562;2023-04-06T11:55:24;5.10;;;3.97;;
12425;SDS011;6277;49.824;9.562;2023-04-06T11:57:50;5.30;;;4.03;;
12425;SDS011;6277;49.824;9.562;2023-04-06T12:00:16;8.23;;;4.47;;
12425;SDS011;6277;49.824;9.562;2023-04-06T12:02:45;5.57;;;4.05;;
12425;SDS011;6277;49.824;9.562;2023-04-06T12:05:11;6.60;;;5.00;;
12425;SDS011;6277;49.824;9.562;2023-04-06T12:07:37;5.43;;;4.72;;
12425;SDS011;6277;49.824;9.562;2023-04-06T12:10:03;6.07;;;4.53;;
12425;SDS011;6277;49.824;9.562;2023-04-06T12:12:28;6.18;;;4.40;;
12425;SDS011;6277;49.824;9.562;2023-04-06T12:14:55;5.75;;;4.40;;
12425;SDS011;6277;49.824;9.562;2023-04-06T12:17:21;4.75;;;3.70;;
12425;SDS011;6277;49.824;9.562;2023-04-06T12:19:46;5.63;;;3.85;;
12425;SDS011;6277;49.824;9.562;2023-04-06T12:22:12;4.22;;;3.45;;
12425;SDS011;6277;49.824;9.562;2023-04-06T12:24:37;4.60;;;3.80;;
12425;SDS011;6277;49.824;9.562;2023-04-06T12:27:03;5.75;;;3.90;;
12425;SDS011;6277;49.824;9.562;2023-04-06T12:29:28;6.35;;;4.32;;
12425;SDS011;6277;49.824;9.562;2023-04-06T12:31:54;5.93;;;4.47;;
12425;SDS011;6277;49.824;9.562;2023-04-06T12:34:20;5.68;;;4.50;;
12425;SDS011;6277;49.824;9.562;2023-04-06T12:36:45;5.85;;;4.32;;
12425;SDS011;6277;49.824;9.562;2023-04-06T12:39:11;5.72;;;4.05;;
12425;SDS011;6277;49.824;9.562;2023-04-06T12:41:36;5.72;;;4.50;;
12425;SDS011;6277;49.824;9.562;2023-04-06T12:44:05;4.07;;;3.67;;
12425;SDS011;6277;49.824;9.562;2023-04-06T12:46:30;5.10;;;4.30;;
12425;SDS011;6277;49.824;9.562;2023-04-06T12:48:56;6.43;;;4.63;;
12425;SDS011;6277;49.824;9.562;2023-04-06T12:51:23;5.00;;;4.15;;
12425;SDS011;6277;49.824;9.562;2023-04-06T12:53:50;4.32;;;3.92;;
12425;SDS011;6277;49.824;9.562;2023-04-06T12:56:16;4.50;;;3.25;;
12425;SDS011;6277;49.824;9.562;2023-04-06T12:58:43;5.78;;;3.35;;
12425;SDS011;6277;49.824;9.562;2023-04-06T13:01:09;5.63;;;3.17;;
12425;SDS011;6277;49.824;9.562;2023-04-06T13:03:37;6.07;;;3.88;;
12425;SDS011;6277;49.824;9.562;2023-04-06T13:06:03;3.72;;;3.40;;
12425;SDS011;6277;49.824;9.562;2023-04-06T13:08:29;4.18;;;2.97;;
12425;SDS011;6277;49.824;9.562;2023-04-06T13:10:54;3.25;;;2.83;;
12425;SDS011;6277;49.824;9.562;2023-04-06T13:13:24;3.78;;;3.35;;
12425;SDS011;6277;49.824;9.562;2023-04-06T13:15:51;4.22;;;2.83;;
12425;SDS011;6277;49.824;9.562;2023-04-06T13:18:17;2.88;;;2.58;;
12425;SDS011;6277;49.824;9.562;2023-04-06T13:20:43;3.72;;;2.75;;
12425;SDS011;6277;49.824;9.562;2023-04-06T13:23:09;3.83;;;3.03;;
12425;SDS011;6277;49.824;9.562;2023-04-06T13:25:35;4.82;;;3.45;;
12425;SDS011;6277;49.824;9.562;2023-04-06T13:28:01;4.93;;;2.70;;
12425;SDS011;6277;49.824;9.562;2023-04-06T13:30:26;3.40;;;2.60;;
12425;SDS011;6277;49.824;9.562;2023-04-06T13:32:52;3.28;;;2.78;;
12425;SDS011;6277;49.824;9.562;2023-04-06T13:35:17;3.90;;;3.03;;
12425;SDS011;6277;49.824;9.562;2023-04-06T13:37:43;5.05;;;3.15;;
12425;SDS011;6277;49.824;9.562;2023-04-06T13:40:09;3.47;;;2.78;;
12425;SDS011;6277;49.824;9.562;2023-04-06T13:42:35;3.65;;;2.97;;
12425;SDS011;6277;49.824;9.562;2023-04-06T13:45:03;3.53;;;2.88;;
12425;SDS011;6277;49.824;9.562;2023-04-06T13:47:29;3.42;;;2.58;;
12425;SDS011;6277;49.824;9.562;2023-04-06T13:49:54;3.65;;;2.88;;
12425;SDS011;6277;49.824;9.562;2023-04-06T13:52:21;2.78;;;2.40;;
12425;SDS011;6277;49.824;9.562;2023-04-06T13:54:46;3.88;;;3.10;;
12425;SDS011;6277;49.824;9.562;2023-04-06T13:57:13;3.83;;;2.90;;
12425;SDS011;6277;49.824;9.562;2023-04-06T13:59:38;2.85;;;2.42;;
12425;SDS011;6277;49.824;9.562;2023-04-06T14:02:05;3.33;;;2.20;;
12425;SDS011;6277;49.824;9.562;2023-04-06T14:04:32;2.85;;;2.38;;
12425;SDS011;6277;49.824;9.562;2023-04-06T14:06:58;3.75;;;2.45;;
12425;SDS011;6277;49.824;9.562;2023-04-06T14:09:25;3.35;;;2.45;;
12425;SDS011;6277;49.824;9.562;2023-04-06T14:11:51;3.17;;;2.25;;
12425;SDS011;6277;49.824;9.562;2023-04-06T14:14:16;3.17;;;2.35;;
12425;SDS011;6277;49.824;9.562;2023-04-06T14:16:43;5.80;;;2.80;;
12425;SDS011;6277;49.824;9.562;2023-04-06T14:19:12;3.10;;;2.65;;
12425;SDS011;6277;49.824;9.562;2023-04-06T14:21:40;3.33;;;2.47;;
12425;SDS011;6277;49.824;9.562;2023-04-06T14:24:06;6.38;;;3.40;;
12425;SDS011;6277;49.824;9.562;2023-04-06T14:26:33;3.85;;;3.03;;
12425;SDS011;6277;49.824;9.562;2023-04-06T14:28:59;3.63;;;2.42;;
12425;SDS011;6277;49.824;9.562;2023-04-06T14:31:26;3.22;;;2.65;;
12425;SDS011;6277;49.824;9.562;2023-04-06T14:33:51;4.07;;;2.75;;
12425;SDS011;6277;49.824;9.562;2023-04-06T14:36:17;3.72;;;2.95;;
12425;SDS011;6277;49.824;9.562;2023-04-06T14:38:43;3.00;;;2.47;;
12425;SDS011;6277;49.824;9.562;2023-04-06T14:41:18;3.08;;;2.47;;
12425;SDS011;6277;49.824;9.562;2023-04-06T14:43:45;3.63;;;2.35;;
12425;SDS011;6277;49.824;9.562;2023-04-06T14:46:11;5.57;;;2.42;;
12425;SDS011;6277;49.824;9.562;2023-04-06T14:48:37;2.78;;;2.33;;
12425;SDS011;6277;49.824;9.562;2023-04-06T14:51:02;3.72;;;2.55;;
12425;SDS011;6277;49.824;9.562;2023-04-06T14:53:28;3.53;;;2.63;;
12425;SDS011;6277;49.824;9.562;2023-04-06T14:55:54;3.83;;;2.60;;
12425;SDS011;6277;49.824;9.562;2023-04-06T14:58:21;3.63;;;2.70;;
12425;SDS011;6277;49.824;9.562;2023-04-06T15:00:48;3.25;;;2.75;;